Terminal Aerodrome Forecast
Issued by NWS Caribou, ME

Home | Current Version | Previous Version | Text Only | Print | Product List | Glossary On
Versions: 1 2 3 4 5 6 7 8 9 10 11 12 13 14
000
FTUS41 KCAR 312345
TAFBGR
TAF
KBGR 312345Z 0100/0124 32010KT P6SM SCT070
     FM010400 VRB03KT P6SM SKC
     FM012000 23007KT P6SM SKC=

USA.gov is the U.S. government's official web portal to all federal, state and local government web resources and services.